Time;durP1;ratioP1;P1;durP2;ratioP2;P2;SDS_P1;SDS_P2;PMS_P1;PMS_P2;Temp;Humidity;BMP_temperature;BMP_pressure;BME280_temperature;BME280_humidity;BME280_pressure;Samples;Min_cycle;Max_cycle;Signal;HPM_P1;HPM_P2
2022/04/26 03:37:45;;;;;;;7.35;1.92;;;;;;;14.62;52.00;94347.75;4159556;28;20057;-55
2022/04/26 03:39:47;;;;;;;9.23;2.15;;;;;;;14.61;52.81;94345.31;4159481;28;20420;-52
2022/04/26 03:41:49;;;;;;;6.50;2.28;;;;;;;14.60;52.21;94355.03;4160119;28;20126;-48
2022/04/26 03:43:51;;;;;;;9.70;2.30;;;;;;;14.62;51.92;94349.56;4160060;28;20069;-53
2022/04/26 03:45:53;;;;;;;9.88;3.40;;;;;;;14.62;52.47;94353.03;4160182;28;20057;-55
2022/04/26 03:47:54;;;;;;;9.63;3.28;;;;;;;14.44;52.67;94360.56;4159391;28;20050;-55
2022/04/26 03:49:56;;;;;;;12.93;3.33;;;;;;;14.30;53.46;94349.09;4160032;28;20119;-54
2022/04/26 03:51:58;;;;;;;13.98;3.05;;;;;;;14.08;53.58;94361.47;4159584;28;20135;-54
2022/04/26 03:54:00;;;;;;;19.00;3.58;;;;;;;13.99;54.33;94359.97;4156817;28;20123;-53
2022/04/26 03:56:07;;;;;;;10.95;3.33;;;;;;;13.95;54.44;94356.09;4158025;28;20497;-53
2022/04/26 03:58:09;;;;;;;6.45;2.90;;;;;;;14.00;54.03;94358.97;4159634;28;20079;-51
2022/04/26 04:00:11;;;;;;;7.63;3.08;;;;;;;14.05;53.86;94361.88;4159774;28;20054;-55
2022/04/26 04:02:19;;;;;;;11.73;2.65;;;;;;;14.07;53.70;94365.13;4159509;28;20057;-53
2022/04/26 04:04:21;;;;;;;14.55;3.22;;;;;;;14.06;53.89;94361.66;4159307;28;20055;-55
2022/04/26 04:06:23;;;;;;;10.68;2.72;;;;;;;14.13;53.92;94362.56;4159498;28;20148;-52
2022/04/26 04:08:25;;;;;;;14.65;2.80;;;;;;;14.16;53.66;94369.25;4158123;28;20460;-56
2022/04/26 04:10:27;;;;;;;19.42;3.20;;;;;;;14.17;53.68;94376.16;4159959;28;20115;-53
2022/04/26 04:12:29;;;;;;;10.85;2.90;;;;;;;14.17;53.29;94376.16;4159290;28;20053;-53
2022/04/26 04:14:30;;;;;;;12.02;2.20;;;;;;;14.16;53.20;94379.00;4159616;28;20139;-54
2022/04/26 04:16:32;;;;;;;10.98;2.28;;;;;;;14.05;53.15;94380.31;4159522;28;20119;-54
2022/04/26 04:20:54;;;;;;;11.00;2.88;;;;;;;14.02;53.54;94388.56;4159303;28;20046;-56
2022/04/26 04:22:56;;;;;;;8.23;2.78;;;;;;;14.13;53.09;94388.91;4157956;28;20065;-52
2022/04/26 04:24:58;;;;;;;6.47;2.33;;;;;;;14.29;52.84;94390.44;4159330;28;20056;-55
2022/04/26 04:27:00;;;;;;;4.75;2.13;;;;;;;14.45;52.25;94388.53;4159745;28;20057;-52
2022/04/26 04:29:02;;;;;;;11.70;3.58;;;;;;;14.56;51.92;94395.16;4159156;28;20057;-54
2022/04/26 04:31:04;;;;;;;23.88;3.53;;;;;;;14.62;51.90;94394.38;4159420;28;20138;-54
2022/04/26 04:33:06;;;;;;;7.00;2.10;;;;;;;14.71;51.22;94399.34;4159127;28;20060;-53
2022/04/26 04:35:08;;;;;;;9.25;3.03;;;;;;;14.84;50.87;94393.34;4159398;28;20076;-54
2022/04/26 04:37:10;;;;;;;6.72;1.95;;;;;;;14.94;50.43;94398.28;4159262;28;20110;-53
2022/04/26 04:39:19;;;;;;;6.55;2.58;;;;;;;15.07;50.08;94397.53;4157542;28;20398;-54
2022/04/26 04:41:20;;;;;;;6.22;2.60;;;;;;;15.20;49.83;94399.44;4159087;28;20581;-51
2022/04/26 04:43:22;;;;;;;12.43;2.47;;;;;;;15.31;49.25;94398.88;4158251;28;20049;-54
2022/04/26 04:45:25;;;;;;;11.95;2.22;;;;;;;15.47;48.90;94403.03;4158937;28;20060;-56
2022/04/26 04:47:27;;;;;;;9.38;2.38;;;;;;;15.57;48.54;94404.31;4155712;28;20053;-54
2022/04/26 04:49:29;;;;;;;6.55;2.47;;;;;;;15.65;48.28;94405.94;4154201;28;20053;-53
2022/04/26 04:51:31;;;;;;;11.82;2.13;;;;;;;15.69;48.05;94407.19;4159146;28;20057;-52
2022/04/26 04:53:33;;;;;;;7.55;2.05;;;;;;;15.77;47.44;94406.22;4157506;28;20041;-52
2022/04/26 04:55:35;;;;;;;7.97;2.50;;;;;;;15.86;47.23;94407.69;4154768;28;20131;-55
2022/04/26 04:57:37;;;;;;;8.32;2.20;;;;;;;15.95;46.99;94406.47;4161300;28;20053;-53
2022/04/26 04:59:38;;;;;;;12.52;2.58;;;;;;;15.96;46.95;94402.84;4159095;28;20060;-54
2022/04/26 05:01:40;;;;;;;5.20;2.00;;;;;;;16.01;46.63;94409.34;4158728;28;20632;-53
2022/04/26 05:03:42;;;;;;;8.02;1.98;;;;;;;16.12;46.63;94408.75;4156590;28;20218;-55
2022/04/26 05:05:44;;;;;;;5.20;1.52;;;;;;;16.16;45.60;94407.34;4158496;28;20466;-52
2022/04/26 05:07:45;;;;;;;9.23;2.10;;;;;;;16.23;45.87;94410.00;4158315;28;20472;-53
2022/04/26 05:09:47;;;;;;;13.20;2.58;;;;;;;16.30;46.12;94411.63;4158221;28;20410;-53
2022/04/26 05:11:49;;;;;;;11.73;2.50;;;;;;;16.34;45.87;94412.03;4158924;28;20637;-54
2022/04/26 05:13:50;;;;;;;5.60;1.80;;;;;;;16.43;45.33;94410.03;4158535;28;20060;-54
2022/04/26 05:15:52;;;;;;;11.60;2.50;;;;;;;16.49;45.61;94420.59;4158597;28;20077;-53
2022/04/26 05:17:54;;;;;;;10.60;2.22;;;;;;;16.56;45.29;94407.38;4158240;28;20057;-54
2022/04/26 05:19:56;;;;;;;11.60;2.70;;;;;;;16.58;45.34;94414.13;4158478;28;20053;-54
2022/04/26 05:21:58;;;;;;;8.30;2.33;;;;;;;16.58;45.37;94411.47;4158542;28;20064;-53
2022/04/26 05:26:20;;;;;;;7.28;2.10;;;;;;;16.71;44.98;94413.31;4158780;28;20057;-55
2022/04/26 05:28:21;;;;;;;11.50;2.28;;;;;;;16.43;45.28;94417.94;4158662;28;20065;-50
2022/04/26 05:30:24;;;;;;;8.93;1.90;;;;;;;15.87;46.66;94424.34;4158608;28;20179;-53
2022/04/26 05:32:30;;;;;;;9.90;2.17;;;;;;;15.93;46.86;94420.91;4158630;28;20353;-52
2022/04/26 05:34:32;;;;;;;5.63;2.40;;;;;;;15.79;47.13;94425.34;4158267;28;20046;-53
2022/04/26 05:36:34;;;;;;;3.95;1.33;;;;;;;15.69;47.10;94422.22;4158641;28;20049;-52
2022/04/26 05:38:36;;;;;;;6.40;1.80;;;;;;;15.65;47.19;94418.34;4155792;28;20596;-54
2022/04/26 05:40:37;;;;;;;9.27;1.80;;;;;;;15.75;47.18;94426.75;4158726;28;20057;-54
2022/04/26 05:42:40;;;;;;;4.38;1.67;;;;;;;16.02;46.65;94429.47;4158392;28;20049;-52
2022/04/26 05:44:42;;;;;;;6.50;1.85;;;;;;;16.24;45.68;94425.66;4158551;28;20489;-54
2022/04/26 05:46:44;;;;;;;9.82;1.58;;;;;;;16.43;45.47;94424.03;4158180;28;20053;-54
2022/04/26 05:48:46;;;;;;;6.82;1.95;;;;;;;16.60;45.09;94424.47;4157971;28;20041;-54
2022/04/26 05:50:48;;;;;;;4.50;1.30;;;;;;;16.29;45.42;94433.78;4158543;28;20469;-55
2022/04/26 05:52:49;;;;;;;8.80;1.75;;;;;;;15.98;46.16;94426.38;4159464;28;20417;-56
2022/04/26 05:54:51;;;;;;;3.17;1.45;;;;;;;15.68;46.77;94431.13;4161533;28;20633;-53
2022/04/26 05:56:53;;;;;;;7.95;1.92;;;;;;;15.72;46.82;94427.97;4159533;28;20049;-55
2022/04/26 05:58:55;;;;;;;6.57;1.88;;;;;;;15.88;46.40;94431.25;4161680;28;20061;-52
2022/04/26 06:00:57;;;;;;;7.95;2.08;;;;;;;16.00;46.33;94436.78;4161675;28;20057;-52
2022/04/26 06:02:59;;;;;;;3.72;1.77;;;;;;;15.65;46.60;94432.34;4161202;28;20600;-55
2022/04/26 06:05:01;;;;;;;9.48;2.03;;;;;;;15.71;46.86;94433.41;4159928;28;20081;-55
2022/04/26 06:07:03;;;;;;;4.10;1.65;;;;;;;15.95;46.53;94427.59;4161327;28;20068;-54
2022/04/26 06:09:05;;;;;;;8.48;2.13;;;;;;;16.22;46.23;94425.06;4160092;28;20080;-52
2022/04/26 06:11:08;;;;;;;4.15;1.75;;;;;;;16.43;45.64;94424.03;4161281;28;20472;-55
2022/04/26 06:13:10;;;;;;;8.70;1.77;;;;;;;16.57;45.46;94423.06;4161409;28;20045;-52
2022/04/26 06:15:12;;;;;;;7.50;1.60;;;;;;;16.70;45.33;94413.50;4161151;28;20111;-54
2022/04/26 06:17:14;;;;;;;5.10;1.70;;;;;;;16.74;44.65;94418.19;4161050;28;20115;-53
2022/04/26 06:19:16;;;;;;;15.57;1.90;;;;;;;16.71;45.01;94415.94;4159298;28;20387;-56
2022/04/26 06:21:17;;;;;;;4.10;1.65;;;;;;;16.91;44.71;94415.16;4160947;28;20456;-55
2022/04/26 06:23:19;;;;;;;6.57;1.20;;;;;;;16.50;44.20;94416.16;4159688;28;20099;-59
2022/04/26 06:25:21;;;;;;;4.47;1.35;;;;;;;16.58;44.37;94415.91;4161085;28;20147;-54
2022/04/26 06:27:22;;;;;;;4.13;1.30;;;;;;;16.72;43.91;94404.34;4161411;28;20057;-55
2022/04/26 06:29:24;;;;;;;3.13;1.52;;;;;;;16.77;44.18;94407.16;4175858;28;20889;-51
2022/04/26 06:31:26;;;;;;;5.53;1.67;;;;;;;17.04;43.75;94407.19;4160997;28;20673;-52
2022/04/26 06:33:28;;;;;;;9.27;1.70;;;;;;;17.35;43.44;94405.69;4160743;28;20061;-55
2022/04/26 06:35:29;;;;;;;8.90;1.40;;;;;;;17.57;42.79;94409.72;4160898;28;20114;-55
2022/04/26 06:37:31;;;;;;;6.28;2.13;;;;;;;17.73;42.75;94402.31;4160975;28;20072;-55
2022/04/26 06:39:33;;;;;;;7.93;3.20;;;;;;;17.93;42.38;94396.94;4159436;28;20065;-52
2022/04/26 06:41:36;;;;;;;5.10;1.67;;;;;;;18.11;41.35;94398.88;4160777;28;20123;-51
2022/04/26 06:43:37;;;;;;;4.47;1.25;;;;;;;18.24;40.06;94393.53;4161013;28;20103;-51
2022/04/26 06:45:39;;;;;;;5.18;1.30;;;;;;;18.25;39.55;94384.53;4160645;28;20120;-54
2022/04/26 06:47:43;;;;;;;2.40;1.13;;;;;;;18.10;39.79;94402.56;4160626;28;20046;-52
2022/04/26 06:49:44;;;;;;;6.47;1.73;;;;;;;17.89;40.67;94403.69;4160827;28;20057;-53
2022/04/26 06:51:46;;;;;;;2.85;1.40;;;;;;;17.59;41.23;94396.25;4160865;28;20064;-56
2022/04/26 06:53:48;;;;;;;4.32;1.50;;;;;;;17.63;41.15;94401.94;4159258;28;20060;-56
2022/04/26 06:55:49;;;;;;;3.50;1.42;;;;;;;17.87;41.40;94401.25;4160749;28;20069;-54
2022/04/26 06:57:51;;;;;;;9.50;2.08;;;;;;;18.03;40.64;94401.81;4158918;28;20461;-55
2022/04/26 06:59:53;;;;;;;5.78;1.40;;;;;;;17.93;40.22;94394.31;4175971;28;20056;-53
2022/04/26 07:01:55;;;;;;;6.20;1.60;;;;;;;18.01;40.55;94389.56;4176784;28;20152;-53
2022/04/26 07:03:57;;;;;;;5.40;1.67;;;;;;;17.57;40.65;94393.81;4176301;28;20053;-51
2022/04/26 07:06:00;;;;;;;3.88;1.27;;;;;;;17.65;40.76;94389.31;4176627;28;20290;-51
2022/04/26 07:08:01;;;;;;;2.25;1.40;;;;;;;17.79;40.84;94391.69;4175351;28;20495;-53
2022/04/26 07:10:04;;;;;;;6.00;1.65;;;;;;;18.00;40.37;94384.47;4161395;28;20089;-50
2022/04/26 07:12:07;;;;;;;3.80;1.40;;;;;;;18.26;40.21;94391.44;4160528;28;20128;-53
2022/04/26 07:14:13;;;;;;;8.40;2.00;;;;;;;18.52;40.37;94381.69;4160138;28;20682;-54
2022/04/26 07:16:18;;;;;;;5.70;1.27;;;;;;;18.77;39.58;94392.31;4160235;28;20120;-55
2022/04/26 07:18:20;;;;;;;7.22;1.83;;;;;;;18.88;38.76;94386.31;4160118;28;20057;-54
2022/04/26 07:20:23;;;;;;;5.07;1.38;;;;;;;18.58;38.41;94384.31;4160224;28;20053;-54
2022/04/26 07:22:25;;;;;;;2.63;1.25;;;;;;;18.31;39.53;94391.63;4160165;28;20478;-54
2022/04/26 07:24:27;;;;;;;4.47;1.73;;;;;;;18.55;39.74;94386.56;4158962;28;20041;-57
2022/04/26 07:26:29;;;;;;;4.97;1.30;;;;;;;18.65;39.01;94383.41;4160359;28;20084;-56
2022/04/26 07:28:30;;;;;;;4.28;1.67;;;;;;;18.80;38.96;94390.06;4160124;28;20084;-55
2022/04/26 07:30:35;;;;;;;4.18;1.65;;;;;;;19.05;38.61;94388.41;4160023;28;20045;-52
2022/04/26 07:35:00;;;;;;;3.42;1.20;;;;;;;19.23;37.36;94389.25;4143634;28;20050;-54
2022/04/26 07:37:02;;;;;;;3.58;1.40;;;;;;;19.28;37.40;94393.09;4143827;28;20111;-55
2022/04/26 07:39:05;;;;;;;6.53;2.50;;;;;;;19.03;37.50;94389.44;4142232;28;20086;-51
2022/04/26 07:41:07;;;;;;;6.93;1.50;;;;;;;19.19;37.74;94388.06;4143624;28;20053;-53
2022/04/26 07:43:09;;;;;;;5.53;1.30;;;;;;;19.37;37.68;94392.56;4143688;28;20131;-55
2022/04/26 07:45:12;;;;;;;4.63;1.30;;;;;;;19.55;37.72;94389.13;4143360;28;20081;-55
2022/04/26 07:47:14;;;;;;;2.03;1.17;;;;;;;19.39;36.98;94395.00;4144697;28;20049;-56
2022/04/26 07:49:16;;;;;;;8.10;1.50;;;;;;;19.54;37.20;94392.00;4159323;28;20114;-57
2022/04/26 07:51:18;;;;;;;5.13;1.30;;;;;;;19.69;37.17;94387.09;4159715;28;20094;-56
2022/04/26 07:53:20;;;;;;;2.65;1.30;;;;;;;19.71;36.81;94386.94;4157948;28;20414;-55
2022/04/26 07:55:22;;;;;;;5.28;1.50;;;;;;;19.87;37.47;94378.31;4157590;28;20439;-53
2022/04/26 07:57:23;;;;;;;10.27;3.00;;;;;;;19.98;36.50;94379.41;4158619;28;20401;-54
2022/04/26 07:59:28;;;;;;;4.35;1.50;;;;;;;20.01;36.45;94376.31;4150104;28;20046;-52
2022/04/26 08:01:31;;;;;;;4.03;1.38;;;;;;;20.07;36.81;94374.59;4143377;28;20221;-53
2022/04/26 08:03:35;;;;;;;4.63;1.55;;;;;;;20.11;36.87;94378.41;4143175;28;20184;-58
2022/04/26 08:05:37;;;;;;;3.70;1.05;;;;;;;20.01;36.49;94371.78;4143366;28;20465;-51
2022/04/26 08:07:42;;;;;;;7.63;1.55;;;;;;;19.61;36.79;94376.78;4143341;28;20495;-56
2022/04/26 08:09:44;;;;;;;7.75;1.40;;;;;;;19.59;37.33;94384.97;4169847;28;20186;-56
2022/04/26 08:11:46;;;;;;;6.00;1.70;;;;;;;19.65;37.58;94389.38;4159350;28;20180;-55
2022/04/26 08:13:48;;;;;;;6.43;1.52;;;;;;;19.90;37.60;94377.88;4159200;28;20540;-54
2022/04/26 08:15:52;;;;;;;6.25;1.55;;;;;;;20.07;36.60;94375.41;4158947;28;20142;-55
2022/04/26 08:17:53;;;;;;;9.35;1.67;;;;;;;20.10;36.67;94374.16;4158982;28;20057;-53
2022/04/26 08:19:55;;;;;;;7.00;1.60;;;;;;;19.70;36.91;94374.66;4159536;28;20061;-53
2022/04/26 08:21:58;;;;;;;4.82;1.70;;;;;;;19.62;37.19;94381.88;4146255;28;20092;-55
2022/04/26 08:28:43;;;;;;;5.68;1.73;;;;;;;19.51;38.39;94373.81;4143056;28;20077;-54
2022/04/26 08:30:45;;;;;;;10.02;2.65;;;;;;;19.69;38.47;94373.81;4142989;28;20410;-52
2022/04/26 08:32:48;;;;;;;7.50;2.40;;;;;;;19.85;38.17;94377.72;4142714;28;20085;-52
2022/04/26 08:34:51;;;;;;;7.72;1.80;;;;;;;19.71;38.35;94379.75;4142782;28;20046;-51
2022/04/26 08:36:52;;;;;;;3.78;1.38;;;;;;;19.46;38.69;94381.66;4142877;28;20462;-54
2022/04/26 08:38:54;;;;;;;8.02;2.20;;;;;;;19.73;38.51;94377.69;4141192;28;20050;-55
2022/04/26 08:40:56;;;;;;;6.88;1.83;;;;;;;20.05;38.19;94367.66;4142497;28;20058;-53
2022/04/26 08:42:59;;;;;;;8.38;2.50;;;;;;;20.28;38.69;94374.06;4142483;28;20613;-54
2022/04/26 08:45:01;;;;;;;7.78;1.95;;;;;;;20.38;37.94;94378.84;4141385;28;20052;-55
2022/04/26 08:51:45;;;;;;;5.47;1.80;;;;;;;21.01;36.97;94375.59;4158946;28;20049;-55
2022/04/26 08:53:47;;;;;;;11.63;4.88;;;;;;;21.19;36.77;94377.34;4155750;28;20622;-55
2022/04/26 08:55:51;;;;;;;10.68;2.10;;;;;;;21.01;37.26;94378.25;4158973;28;20464;-54
2022/04/26 08:57:53;;;;;;;6.25;2.05;;;;;;;21.01;37.02;94369.47;4159052;28;20103;-58
2022/04/26 08:59:55;;;;;;;5.45;1.90;;;;;;;20.72;37.96;94368.53;4159658;28;20076;-54
2022/04/26 09:02:19;;;;;;;5.05;1.95;;;;;;;20.87;37.90;94368.91;4158642;28;20060;-55
2022/04/26 09:04:22;;;;;;;6.82;2.00;;;;;;;20.82;38.28;94369.59;4158717;28;20065;-56
2022/04/26 09:06:36;;;;;;;7.88;2.30;;;;;;;20.65;39.45;94368.66;4158642;28;20068;-53
2022/04/26 09:08:46;;;;;;;4.95;1.90;;;;;;;20.97;39.07;94368.31;4157349;28;20045;-55
2022/04/26 09:10:49;;;;;;;9.13;2.60;;;;;;;21.21;38.58;94377.13;4158763;28;20059;-53
2022/04/26 09:13:09;;;;;;;9.05;2.10;;;;;;;20.44;39.90;94370.78;4157246;28;20347;-54
2022/04/26 09:15:16;;;;;;;10.85;2.15;;;;;;;20.70;39.29;94366.09;4158769;28;20080;-57
2022/04/26 09:17:19;;;;;;;12.73;3.28;;;;;;;20.52;39.82;94364.31;4158973;28;20065;-54
2022/04/26 09:19:21;;;;;;;6.93;1.95;;;;;;;20.57;39.55;94363.63;4158699;28;20150;-53
2022/04/26 09:21:26;;;;;;;8.65;2.40;;;;;;;20.58;39.71;94367.94;4158710;28;20061;-54
2022/04/26 09:23:29;;;;;;;7.85;2.60;;;;;;;20.70;39.85;94363.44;4157475;28;20049;-53
2022/04/26 09:25:31;;;;;;;8.07;2.20;;;;;;;21.07;39.64;94366.69;4158162;28;20054;-54
2022/04/26 09:27:37;;;;;;;8.88;2.05;;;;;;;20.90;39.03;94364.97;4162125;28;20053;-55
2022/04/26 09:29:46;;;;;;;8.63;2.47;;;;;;;20.77;39.44;94363.31;4160699;28;20473;-53
2022/04/26 09:31:59;;;;;;;11.85;2.92;;;;;;;20.72;39.70;94358.69;4161635;28;20057;-55
2022/04/26 09:34:12;;;;;;;15.15;3.00;;;;;;;20.58;39.68;94359.94;4161436;28;20449;-54
2022/04/26 09:36:16;;;;;;;7.22;2.35;;;;;;;20.77;39.99;94360.66;4162036;28;20481;-51
2022/04/26 09:38:24;;;;;;;6.43;2.50;;;;;;;21.11;39.38;94356.38;4160544;28;20053;-55
2022/04/26 09:40:31;;;;;;;10.45;2.38;;;;;;;21.46;39.29;94355.56;4161621;28;20370;-55
2022/04/26 09:42:34;;;;;;;9.38;2.60;;;;;;;21.72;38.32;94353.41;4161645;28;20389;-55
2022/04/26 09:44:40;;;;;;;11.38;2.80;;;;;;;21.82;38.30;94353.63;4160162;28;20666;-55
2022/04/26 09:46:42;;;;;;;8.75;2.60;;;;;;;22.16;37.76;94343.84;4161826;28;20057;-55
2022/04/26 09:48:45;;;;;;;11.27;2.53;;;;;;;22.48;37.32;94346.03;4161377;28;20049;-54
2022/04/26 09:50:47;;;;;;;11.95;3.38;;;;;;;22.64;37.17;94336.41;4161501;28;20053;-56
2022/04/26 09:52:49;;;;;;;7.95;2.50;;;;;;;22.39;36.83;94342.94;4161170;28;20080;-53
2022/04/26 09:54:50;;;;;;;10.30;2.28;;;;;;;22.24;37.31;94345.31;4160666;28;20053;-56
2022/04/26 09:56:52;;;;;;;8.27;2.22;;;;;;;22.17;36.49;94348.13;4161615;28;20057;-58
2022/04/26 09:58:57;;;;;;;9.20;3.03;;;;;;;22.11;36.94;94342.94;4161819;28;20049;-59
2022/04/26 10:01:04;;;;;;;16.83;2.70;;;;;;;22.25;36.67;94330.97;4161968;28;20045;-56
2022/04/26 10:03:09;;;;;;;7.60;2.33;;;;;;;22.03;36.77;94336.94;4161128;28;20560;-55
2022/04/26 10:05:14;;;;;;;11.05;2.78;;;;;;;21.99;36.77;94333.13;4159547;28;20179;-59
2022/04/26 10:07:19;;;;;;;13.65;2.75;;;;;;;22.16;36.76;94335.03;4161355;28;20054;-54
2022/04/26 10:09:23;;;;;;;11.07;2.72;;;;;;;22.29;36.23;94332.09;4159804;28;20060;-55
2022/04/26 10:11:25;;;;;;;5.90;2.60;;;;;;;22.42;36.31;94331.78;4161474;28;20264;-55
2022/04/26 10:13:31;;;;;;;11.75;2.20;;;;;;;21.86;37.10;94339.56;4160905;28;20057;-56
2022/04/26 10:15:35;;;;;;;7.05;2.08;;;;;;;22.05;36.44;94332.19;4159829;28;20501;-53
2022/04/26 10:17:48;;;;;;;7.43;2.22;;;;;;;22.39;36.24;94320.78;4161192;28;20728;-52
2022/04/26 10:19:50;;;;;;;14.15;2.13;;;;;;;22.58;35.89;94324.03;4161301;28;20060;-55
2022/04/26 10:21:55;;;;;;;10.90;2.40;;;;;;;22.67;36.06;94319.88;4148065;28;20136;-54
2022/04/26 10:24:01;;;;;;;10.75;2.40;;;;;;;22.88;35.36;94313.00;4143266;28;20054;-56
2022/04/26 10:26:22;;;;;;;11.05;2.55;;;;;;;23.12;34.87;94321.63;4144423;28;20046;-55
2022/04/26 10:28:26;;;;;;;10.25;2.83;;;;;;;23.20;34.67;94317.75;4144357;28;20107;-54
2022/04/26 10:30:50;;;;;;;7.45;2.33;;;;;;;23.21;34.44;94320.19;4144775;28;20062;-56
2022/04/26 10:32:52;;;;;;;;;;;;;;;23.09;33.95;94320.28;4147763;28;20156;-54
2022/04/26 10:34:54;;;;;;;9.18;2.53;;;;;;;23.28;33.93;94306.63;4154846;28;19925;-54
2022/04/26 10:36:57;;;;;;;12.10;2.50;;;;;;;23.12;34.59;94318.97;4160351;28;20155;-51
2022/04/26 10:39:07;;;;;;;6.77;1.73;;;;;;;22.47;35.39;94305.16;4157890;28;20123;-55
2022/04/26 10:41:10;;;;;;;10.68;2.47;;;;;;;22.44;35.52;94310.19;4160085;28;20289;-57
2022/04/26 10:43:11;;;;;;;6.13;2.08;;;;;;;21.77;35.91;94302.84;4160385;28;20058;-56
2022/04/26 10:45:13;;;;;;;8.98;2.53;;;;;;;21.46;36.51;94303.06;4160184;28;20069;-54
2022/04/26 10:47:21;;;;;;;7.90;2.33;;;;;;;21.70;36.41;94310.19;4160049;28;20053;-53
2022/04/26 10:49:25;;;;;;;10.30;2.45;;;;;;;21.53;35.81;94302.13;4158059;28;20421;-52
2022/04/26 10:51:37;;;;;;;7.82;1.67;;;;;;;21.40;35.14;94304.00;4160123;28;20061;-55
2022/04/26 10:53:45;;;;;;;6.57;1.60;;;;;;;21.43;33.72;94308.06;4158821;28;20115;-51
2022/04/26 10:55:49;;;;;;;7.80;1.90;;;;;;;21.65;33.66;94300.22;4160350;28;20049;-54
2022/04/26 10:57:57;;;;;;;5.63;1.70;;;;;;;21.93;33.34;94286.09;4160551;28;20701;-52
2022/04/26 11:00:07;;;;;;;5.75;2.00;;;;;;;22.18;32.81;94291.06;4160600;28;20585;-55
2022/04/26 11:02:12;;;;;;;7.18;1.95;;;;;;;22.43;32.15;94285.34;4151560;28;20046;-55
2022/04/26 11:04:17;;;;;;;8.13;2.58;;;;;;;22.63;32.55;94284.88;4176436;28;20124;-54
2022/04/26 11:06:39;;;;;;;14.10;2.28;;;;;;;22.86;33.14;94289.19;4176884;28;20057;-54
2022/04/26 11:08:41;;;;;;;7.75;2.67;;;;;;;23.16;33.17;94287.22;4171601;28;20050;-56
2022/04/26 11:11:01;;;;;;;10.20;2.38;;;;;;;23.39;32.96;94280.84;4159881;28;20053;-57
2022/04/26 11:13:03;;;;;;;5.25;1.77;;;;;;;23.41;32.15;94286.75;4159782;28;20426;-55
2022/04/26 11:15:07;;;;;;;6.70;2.00;;;;;;;23.47;32.47;94283.09;4159891;28;20672;-55
2022/04/26 11:17:09;;;;;;;8.77;1.77;;;;;;;23.69;32.13;94288.41;4159884;28;20049;-56
2022/04/26 11:19:11;;;;;;;5.65;1.60;;;;;;;23.47;30.98;94277.75;4159481;28;20509;-55
2022/04/26 11:21:13;;;;;;;4.50;1.83;;;;;;;23.56;31.24;94276.22;4157937;28;20061;-55
2022/04/26 11:28:27;;;;;;;8.90;2.40;;;;;;;24.25;30.37;94278.28;4159945;28;20049;-53
2022/04/26 11:30:42;;;;;;;5.80;2.00;;;;;;;24.31;30.63;94276.47;4160178;28;20057;-51
2022/04/26 11:32:44;;;;;;;4.35;1.85;;;;;;;24.25;29.92;94274.81;4160181;28;20517;-50
2022/04/26 11:34:47;;;;;;;4.68;1.80;;;;;;;24.12;29.95;94274.16;4159945;28;20049;-52
2022/04/26 11:36:50;;;;;;;9.82;2.00;;;;;;;24.24;30.11;94270.50;4159668;28;20050;-54
2022/04/26 11:38:58;;;;;;;5.50;1.63;;;;;;;24.32;29.91;94262.81;4157469;28;20045;-52
2022/04/26 11:41:01;;;;;;;6.05;2.05;;;;;;;24.10;29.84;94268.25;4158303;28;20140;-54
2022/04/26 11:43:13;;;;;;;4.75;1.77;;;;;;;23.90;30.21;94263.53;4160034;28;20127;-54
2022/04/26 11:45:16;;;;;;;9.30;2.17;;;;;;;23.90;30.16;94254.69;4159771;28;20084;-55
2022/04/26 11:47:18;;;;;;;10.05;2.17;;;;;;;23.76;30.05;94261.50;4159640;28;20435;-53
2022/04/26 11:49:40;;;;;;;10.63;2.00;;;;;;;23.27;30.21;94263.06;4157929;28;20053;-56
2022/04/26 11:51:59;;;;;;;5.47;1.80;;;;;;;23.25;30.44;94249.16;4159800;28;20544;-54
2022/04/26 11:54:00;;;;;;;9.07;2.20;;;;;;;23.45;30.49;94253.91;4157974;28;20599;-55
2022/04/26 11:56:04;;;;;;;11.32;1.95;;;;;;;23.37;30.02;94245.53;4159594;28;20056;-55
2022/04/26 11:58:15;;;;;;;11.98;2.05;;;;;;;23.57;29.63;94242.28;4159173;28;20099;-56
2022/04/26 12:00:19;;;;;;;5.57;1.63;;;;;;;23.83;30.64;94233.50;4143101;28;20515;-55
2022/04/26 12:02:21;;;;;;;9.88;1.85;;;;;;;23.45;29.48;94243.22;4152054;28;20123;-57
2022/04/26 12:04:23;;;;;;;9.77;2.08;;;;;;;23.06;30.21;94239.84;4156920;28;20049;-58
2022/04/26 12:06:34;;;;;;;8.02;1.70;;;;;;;22.71;30.57;94246.25;4157323;28;20061;-54
2022/04/26 12:08:40;;;;;;;9.10;1.70;;;;;;;22.44;31.04;94243.47;4156620;28;20046;-55
2022/04/26 12:10:42;;;;;;;11.65;2.20;;;;;;;22.64;31.40;94238.41;4159425;28;20057;-52
2022/04/26 12:12:55;;;;;;;4.45;2.00;;;;;;;22.43;31.34;94239.97;4159524;28;20107;-55
2022/04/26 12:14:57;;;;;;;9.13;2.15;;;;;;;22.53;31.44;94235.84;4159451;28;20489;-54
2022/04/26 12:16:59;;;;;;;5.50;1.65;;;;;;;22.59;31.33;94235.69;4159405;28;20053;-56
2022/04/26 12:19:03;;;;;;;9.60;2.90;;;;;;;22.90;31.82;94236.09;4158837;28;20057;-56
2022/04/26 12:21:05;;;;;;;9.48;2.03;;;;;;;23.10;31.29;94227.56;4159300;28;20053;-56
2022/04/26 12:23:20;;;;;;;6.22;1.40;;;;;;;23.06;31.00;94229.16;4157836;28;20057;-56
2022/04/26 12:25:22;;;;;;;6.40;1.65;;;;;;;23.34;30.78;94224.63;4158971;28;20041;-55
2022/04/26 12:27:26;;;;;;;11.10;1.33;;;;;;;23.63;30.30;94222.56;4159661;28;20053;-57
2022/04/26 12:29:30;;;;;;;12.85;2.25;;;;;;;23.87;29.77;94228.44;4159417;28;20185;-55
2022/04/26 12:31:33;;;;;;;8.55;1.73;;;;;;;23.99;30.25;94223.75;4159119;28;20132;-54
2022/04/26 12:33:36;;;;;;;5.15;1.83;;;;;;;24.18;29.78;94213.47;4158823;28;20145;-54
2022/04/26 12:35:38;;;;;;;6.07;1.65;;;;;;;24.08;29.10;94216.06;4158835;28;20049;-53
2022/04/26 12:37:40;;;;;;;5.82;1.52;;;;;;;24.22;29.88;94214.56;4157838;28;20053;-53
2022/04/26 12:39:44;;;;;;;5.90;1.52;;;;;;;24.32;29.76;94219.97;4157787;28;20054;-56
2022/04/26 12:41:50;;;;;;;7.05;1.83;;;;;;;24.32;28.97;94221.84;4158939;28;20050;-56
2022/04/26 12:44:03;;;;;;;5.68;1.77;;;;;;;24.25;29.49;94219.41;4158995;28;20053;-52
2022/04/26 12:46:06;;;;;;;5.68;1.70;;;;;;;24.37;28.56;94221.91;4159191;28;20080;-53
2022/04/26 12:50:33;;;;;;;7.55;1.50;;;;;;;24.57;29.13;94218.59;4159108;28;20045;-57
2022/04/26 12:52:35;;;;;;;4.53;1.60;;;;;;;24.57;28.52;94209.75;4158971;28;20111;-54
2022/04/26 12:54:40;;;;;;;11.80;2.28;;;;;;;24.49;29.07;94214.50;4157548;28;20119;-55
2022/04/26 12:56:59;;;;;;;10.63;3.00;;;;;;;24.42;30.24;94223.81;4158784;28;20370;-57
2022/04/26 12:59:01;;;;;;;8.30;1.80;;;;;;;24.28;31.60;94218.06;4158978;28;20058;-57
2022/04/26 13:01:04;;;;;;;10.85;1.63;;;;;;;24.15;31.71;94224.66;4158263;28;20111;-56
2022/04/26 13:03:07;;;;;;;14.13;2.03;;;;;;;23.90;32.24;94226.06;4159893;28;20705;-51
2022/04/26 13:05:09;;;;;;;11.02;1.60;;;;;;;23.58;32.41;94220.66;4155204;28;20049;-54
2022/04/26 13:07:10;;;;;;;8.45;1.40;;;;;;;23.49;32.67;94233.66;4158479;28;20053;-54
2022/04/26 13:09:12;;;;;;;18.13;1.73;;;;;;;23.34;32.56;94227.31;4157346;28;20072;-54
2022/04/26 13:11:17;;;;;;;7.82;1.45;;;;;;;23.25;33.39;94233.13;4158772;28;20576;-57
2022/04/26 13:13:19;;;;;;;6.78;3.05;;;;;;;23.12;32.99;94236.13;4158650;28;20045;-53
2022/04/26 13:15:23;;;;;;;10.32;1.50;;;;;;;22.92;33.02;94239.34;4158698;28;21106;-55
2022/04/26 13:17:25;;;;;;;8.73;1.80;;;;;;;22.92;33.04;94238.53;4158683;28;20057;-55
2022/04/26 13:19:26;;;;;;;8.85;2.00;;;;;;;22.39;34.03;94251.38;4158463;28;20441;-56
2022/04/26 13:21:28;;;;;;;7.60;1.40;;;;;;;22.51;34.46;94249.44;4149850;28;20348;-52
2022/04/26 13:23:32;;;;;;;4.65;1.40;;;;;;;22.51;35.07;94249.44;4141139;28;20084;-54
2022/04/26 13:25:34;;;;;;;4.10;1.33;;;;;;;22.37;35.10;94253.47;4142720;28;20104;-55
2022/04/26 13:27:37;;;;;;;6.97;1.50;;;;;;;21.74;35.22;94255.34;4142230;28;20053;-53
2022/04/26 13:29:39;;;;;;;5.20;1.20;;;;;;;21.66;34.76;94264.53;4142254;28;20153;-49
2022/04/26 13:31:41;;;;;;;8.73;1.30;;;;;;;21.30;35.01;94269.16;4142229;28;20557;-53
2022/04/26 13:33:45;;;;;;;5.78;1.50;;;;;;;21.18;35.42;94266.50;4150051;28;20087;-54
2022/04/26 13:35:47;;;;;;;6.80;1.33;;;;;;;21.20;36.19;94261.75;4158624;28;20053;-53
2022/04/26 13:37:50;;;;;;;4.80;1.45;;;;;;;20.93;36.78;94247.31;4158003;28;20164;-55
2022/04/26 13:39:53;;;;;;;3.67;1.30;;;;;;;20.79;37.63;94257.44;4158520;28;20127;-52
2022/04/26 13:41:54;;;;;;;2.90;1.17;;;;;;;20.73;37.99;94261.81;4158770;28;20046;-53